createdAt,value
2018-03-02T00:02:07.540Z,96571.05
2018-03-02T00:04:35.264Z,96567.64
2018-03-02T00:07:03.008Z,96562.58
2018-03-02T00:09:30.971Z,96567.39
2018-03-02T00:11:58.749Z,96555.17
2018-03-02T00:14:26.859Z,96556.64
2018-03-02T00:16:54.650Z,96547.86
2018-03-02T00:19:22.328Z,96548.16
2018-03-02T00:21:50.072Z,96547.03
2018-03-02T00:24:17.799Z,96546.63
2018-03-02T00:26:45.535Z,96544.73
2018-03-02T00:29:13.400Z,96536.88
2018-03-02T00:31:41.141Z,96534.64
2018-03-02T00:34:08.926Z,96521.88
2018-03-02T00:39:10.751Z,96512.51
2018-03-02T00:41:38.430Z,96510.30
2018-03-02T00:44:06.162Z,96512.66
2018-03-02T00:46:33.918Z,96508.19
2018-03-02T00:49:01.655Z,96507.75
2018-03-02T00:51:29.637Z,96501.83
2018-03-02T00:53:57.371Z,96496.38
2018-03-02T00:56:25.047Z,96494.73
2018-03-02T00:58:52.886Z,96486.66
2018-03-02T01:01:20.584Z,96485.91
2018-03-02T01:03:48.603Z,96471.97
2018-03-02T01:06:16.296Z,96474.73
2018-03-02T01:08:44.027Z,96471.02
2018-03-02T01:11:11.767Z,96462.27
2018-03-02T01:13:39.439Z,96468.59
2018-03-02T01:16:07.449Z,96459.45
2018-03-02T01:18:35.205Z,96455.38
2018-03-02T01:21:02.924Z,96456.59
2018-03-02T01:23:30.683Z,96453.62
2018-03-02T01:25:58.355Z,96453.73
2018-03-02T01:28:26.244Z,96449.97
2018-03-02T01:30:53.932Z,96449.61
2018-03-02T01:33:21.666Z,96449.02
2018-03-02T01:35:49.455Z,96447.95
2018-03-02T01:38:17.188Z,96444.94
2018-03-02T01:40:44.925Z,96444.97
2018-03-02T01:43:12.627Z,96433.31
2018-03-02T01:45:40.321Z,96429.58
2018-03-02T01:48:08.104Z,96424.27
2018-03-02T01:50:35.836Z,96414.91
2018-03-02T01:53:03.607Z,96415.73
2018-03-02T01:55:31.353Z,96410.69
2018-03-02T01:57:59.040Z,96407.94
2018-03-02T02:00:26.795Z,96398.30
2018-03-02T02:02:54.481Z,96395.67
2018-03-02T02:05:22.424Z,96391.48
2018-03-02T02:07:50.107Z,96394.82
2018-03-02T02:10:17.783Z,96385.00
2018-03-02T02:12:45.479Z,96384.62
2018-03-02T02:15:13.232Z,96379.55
2018-03-02T02:17:40.987Z,96385.29
2018-03-02T02:20:08.672Z,96392.70
2018-03-02T02:22:36.351Z,96388.77
2018-03-02T02:25:04.082Z,96386.28
2018-03-02T02:27:32.153Z,96380.00
2018-03-02T02:29:59.916Z,96374.75
2018-03-02T02:32:27.614Z,96374.53
2018-03-02T02:34:55.305Z,96367.11
2018-03-02T02:37:23.056Z,96374.49
2018-03-02T02:39:50.808Z,96367.50
2018-03-02T02:42:18.741Z,96365.50
2018-03-02T02:44:46.478Z,96366.00
2018-03-02T02:47:14.221Z,96363.19
2018-03-02T02:49:41.934Z,96356.98
2018-03-02T02:52:09.678Z,96363.14
2018-03-02T02:54:37.651Z,96357.80
2018-03-02T02:57:05.375Z,96352.73
2018-03-02T02:59:33.041Z,96346.66
2018-03-02T03:02:00.792Z,96350.85
2018-03-02T03:04:28.482Z,96355.16
2018-03-02T03:06:56.260Z,96357.54
2018-03-02T03:09:23.941Z,96360.11
2018-03-02T03:11:51.618Z,96363.55
2018-03-02T03:14:19.362Z,96361.02
2018-03-02T03:16:47.048Z,96361.95
2018-03-02T03:19:14.996Z,96356.41
2018-03-02T03:21:42.708Z,96350.86
2018-03-02T03:24:10.384Z,96352.51
2018-03-02T03:26:38.156Z,96347.55
2018-03-02T03:29:05.887Z,96335.50
2018-03-02T03:31:33.808Z,96324.97
2018-03-02T03:34:01.480Z,96323.19
2018-03-02T03:36:29.180Z,96321.77
2018-03-02T03:38:56.929Z,96316.38
2018-03-02T03:41:24.664Z,96316.95
2018-03-02T03:43:52.539Z,96317.35
2018-03-02T03:46:20.224Z,96316.20
2018-03-02T03:48:47.912Z,96314.97
2018-03-02T03:51:15.761Z,96311.29
2018-03-02T03:53:43.497Z,96311.75
2018-03-02T03:56:11.235Z,96311.48
2018-03-02T03:58:38.919Z,96307.60
2018-03-02T04:01:06.590Z,96312.52
2018-03-02T04:03:34.535Z,96300.80
2018-03-02T04:06:02.217Z,96298.12
2018-03-02T04:08:30.078Z,96295.13
2018-03-02T04:10:57.804Z,96295.28
2018-03-02T04:13:25.485Z,96284.45
2018-03-02T04:15:53.181Z,96278.88
2018-03-02T04:18:20.867Z,96266.06
2018-03-02T04:20:48.934Z,96267.44
2018-03-02T04:23:16.671Z,96272.22
2018-03-02T04:25:44.427Z,96268.67
2018-03-02T04:28:12.166Z,96264.00
2018-03-02T04:30:39.853Z,96266.45
2018-03-02T04:33:07.634Z,96257.45
2018-03-02T04:35:35.367Z,96257.59
2018-03-02T04:38:03.069Z,96249.08
2018-03-02T04:40:30.944Z,96246.34
2018-03-02T04:42:58.610Z,96243.98
2018-03-02T04:45:26.551Z,96241.95
2018-03-02T04:47:54.233Z,96243.20
2018-03-02T04:50:21.922Z,96237.50
2018-03-02T04:52:49.716Z,96236.51
2018-03-02T04:55:17.392Z,96241.32
2018-03-02T04:57:45.507Z,96236.17
2018-03-02T05:00:13.199Z,96232.25
2018-03-02T05:02:40.935Z,96234.56
2018-03-02T05:05:08.640Z,96237.31
2018-03-02T05:07:36.371Z,96238.36
2018-03-02T05:10:04.348Z,96241.59
2018-03-02T05:12:32.065Z,96239.11
2018-03-02T05:14:59.744Z,96242.30
2018-03-02T05:17:27.678Z,96235.45
2018-03-02T05:19:55.398Z,96225.78
2018-03-02T05:22:23.119Z,96216.59
2018-03-02T05:24:50.847Z,96210.45
2018-03-02T05:27:18.574Z,96207.60
2018-03-02T05:29:46.335Z,96206.16
2018-03-02T05:32:14.052Z,96200.63
2018-03-02T05:34:41.995Z,96203.84
2018-03-02T05:37:09.681Z,96197.67
2018-03-02T05:39:37.411Z,96194.77
2018-03-02T05:42:05.157Z,96198.24
2018-03-02T05:44:32.949Z,96191.30
2018-03-02T05:47:00.682Z,96189.67
2018-03-02T05:49:28.371Z,96186.84
2018-03-02T05:51:56.308Z,96191.25
2018-03-02T05:54:24.059Z,96188.43
2018-03-02T05:56:51.807Z,96192.31
2018-03-02T05:59:19.583Z,96188.91
2018-03-02T06:01:47.325Z,96190.63
2018-03-02T06:04:15.021Z,96192.55
2018-03-02T06:06:42.737Z,96185.03
2018-03-02T06:09:10.466Z,96178.71
2018-03-02T06:11:38.470Z,96171.64
2018-03-02T06:14:06.151Z,96160.31
2018-03-02T06:16:34.005Z,96154.43
2018-03-02T06:19:01.690Z,96145.06
2018-03-02T06:21:29.412Z,96154.51
2018-03-02T06:23:57.406Z,96147.13
2018-03-02T06:26:25.088Z,96150.42
2018-03-02T06:28:53.189Z,96150.32
2018-03-02T06:31:20.930Z,96139.64
2018-03-02T06:33:48.610Z,96139.83
2018-03-02T06:36:16.417Z,96132.69
2018-03-02T06:38:44.151Z,96128.63
2018-03-02T06:41:11.871Z,96127.99
2018-03-02T06:43:39.570Z,96129.36
2018-03-02T06:46:07.376Z,96129.92
2018-03-02T06:48:35.343Z,96122.58
2018-03-02T06:51:03.019Z,96134.66
2018-03-02T06:53:30.699Z,96148.25
2018-03-02T06:55:58.411Z,96153.76
2018-03-02T06:58:26.154Z,96152.31
2018-03-02T07:00:54.321Z,96156.75
2018-03-02T07:03:22.007Z,96155.95
2018-03-02T07:05:49.685Z,96145.73
2018-03-02T07:08:17.479Z,96142.91
2018-03-02T07:10:45.159Z,96135.19
2018-03-02T07:13:13.145Z,96130.00
2018-03-02T07:15:40.842Z,96139.17
2018-03-02T07:18:08.548Z,96137.59
2018-03-02T07:20:36.267Z,96142.72
2018-03-02T07:23:03.973Z,96138.09
2018-03-02T07:25:31.864Z,96139.09
2018-03-02T07:27:59.587Z,96141.14
2018-03-02T07:30:27.401Z,96136.92
2018-03-02T07:32:55.171Z,96135.58
2018-03-02T07:35:22.900Z,96132.35
2018-03-02T07:37:50.811Z,96124.50
2018-03-02T07:40:18.541Z,96117.45
2018-03-02T07:42:46.262Z,96112.15
2018-03-02T07:45:14.018Z,96110.41
2018-03-02T07:47:41.699Z,96106.98
2018-03-02T07:50:09.455Z,96107.08
2018-03-02T07:52:37.139Z,96106.12
2018-03-02T07:55:04.958Z,96106.57
2018-03-02T07:57:32.671Z,96099.80
2018-03-02T08:00:00.362Z,96106.20
2018-03-02T08:02:28.284Z,96105.91
2018-03-02T08:04:56.101Z,96102.44
2018-03-02T08:07:23.787Z,96103.75
2018-03-02T08:09:51.560Z,96089.16
2018-03-02T08:12:19.311Z,96085.34
2018-03-02T08:14:47.350Z,96082.92
2018-03-02T08:17:15.053Z,96083.61
2018-03-02T08:19:42.792Z,96072.03
2018-03-02T08:22:10.592Z,96074.64
2018-03-02T08:24:38.297Z,96064.12
2018-03-02T08:27:06.281Z,96067.47
2018-03-02T08:29:33.966Z,96070.13
2018-03-02T08:32:01.650Z,96066.02
2018-03-02T08:34:29.380Z,96058.52
2018-03-02T08:36:57.134Z,96062.31
2018-03-02T08:39:26.112Z,96060.98
2018-03-02T08:41:54.045Z,96064.02
2018-03-02T08:44:22.212Z,96061.28
2018-03-02T08:46:49.996Z,96058.66
2018-03-02T08:49:18.851Z,96057.95
2018-03-02T08:51:47.014Z,96048.51
2018-03-02T08:54:14.695Z,96046.78
2018-03-02T08:56:42.379Z,96041.36
2018-03-02T08:59:10.078Z,96035.42
2018-03-02T09:01:37.846Z,96031.05
2018-03-02T09:04:05.928Z,96035.01
2018-03-02T09:06:33.631Z,96027.95
2018-03-02T09:09:01.304Z,96029.30
2018-03-02T09:11:29.646Z,96030.31
2018-03-02T09:13:57.397Z,96024.19
2018-03-02T09:16:25.427Z,96014.22
2018-03-02T09:18:53.173Z,96019.47
2018-03-02T09:21:20.899Z,96020.65
2018-03-02T09:23:48.721Z,96017.73
2018-03-02T09:26:16.407Z,96017.28
2018-03-02T09:28:44.546Z,96020.67
2018-03-02T09:31:12.361Z,96009.24
2018-03-02T09:33:40.098Z,96008.70
2018-03-02T09:36:10.176Z,96004.83
2018-03-02T09:38:41.445Z,95993.91
2018-03-02T09:41:10.183Z,95986.61
2018-03-02T09:43:38.583Z,95989.05
2018-03-02T09:46:06.249Z,95981.30
2018-03-02T09:48:33.952Z,95979.13
2018-03-02T09:51:02.271Z,95986.90
2018-03-02T09:53:30.257Z,95984.16
2018-03-02T09:55:58.021Z,95983.63
2018-03-02T09:58:25.763Z,95982.30
2018-03-02T10:00:53.457Z,95988.97
2018-03-02T10:03:21.154Z,95989.02
2018-03-02T10:05:49.091Z,95985.85
2018-03-02T10:08:16.765Z,95977.03
2018-03-02T10:10:51.729Z,95972.22
2018-03-02T10:13:19.740Z,95970.51
2018-03-02T10:15:47.462Z,95967.42
2018-03-02T10:18:15.200Z,95967.30
2018-03-02T10:20:42.920Z,95962.77
2018-03-02T10:23:10.646Z,95958.36
2018-03-02T10:25:38.388Z,95954.50
2018-03-02T10:28:06.424Z,95950.73
2018-03-02T10:30:34.183Z,95943.53
2018-03-02T10:33:01.899Z,95942.31
2018-03-02T10:35:29.608Z,95939.25
2018-03-02T10:37:57.299Z,95949.22
2018-03-02T10:40:25.368Z,95947.94
2018-03-02T10:42:55.199Z,95941.80
2018-03-02T10:45:22.926Z,95938.66
2018-03-02T10:47:50.662Z,95931.01
2018-03-02T10:50:18.390Z,95920.94
2018-03-02T10:52:50.066Z,95920.88
2018-03-02T10:55:18.044Z,95911.22
2018-03-02T10:57:46.112Z,95927.06
2018-03-02T11:00:13.996Z,95923.34
2018-03-02T11:02:47.222Z,95916.97
2018-03-02T11:05:15.000Z,95917.59
2018-03-02T11:07:42.773Z,95902.17
2018-03-02T11:10:10.942Z,95898.58
2018-03-02T11:12:38.999Z,95897.30
2018-03-02T11:15:07.767Z,95891.42
2018-03-02T11:17:35.846Z,95884.26
2018-03-02T11:20:03.593Z,95884.67
2018-03-02T11:22:32.113Z,95875.89
2018-03-02T11:24:59.945Z,95884.40
2018-03-02T11:27:27.675Z,95879.73
2018-03-02T11:29:55.744Z,95870.41
2018-03-02T11:32:23.424Z,95875.41
2018-03-02T11:34:51.176Z,95872.28
2018-03-02T11:37:18.929Z,95865.39
2018-03-02T11:39:46.614Z,95860.17
2018-03-02T11:42:14.843Z,95858.45
2018-03-02T11:44:42.756Z,95848.04
2018-03-02T11:47:10.484Z,95847.02
2018-03-02T11:49:38.192Z,95849.26
2018-03-02T11:52:05.951Z,95836.86
2018-03-02T11:54:33.754Z,95838.78
2018-03-02T11:57:02.338Z,95835.91
2018-03-02T11:59:31.166Z,95838.23
2018-03-02T12:01:59.610Z,95838.19
2018-03-02T12:04:27.672Z,95831.83
2018-03-02T12:06:55.455Z,95841.23
2018-03-02T12:09:23.274Z,95832.17
2018-03-02T12:11:52.307Z,95831.08
2018-03-02T12:14:20.415Z,95826.38
2018-03-02T12:16:48.819Z,95828.17
2018-03-02T12:19:16.725Z,95822.13
2018-03-02T12:21:46.136Z,95819.19
2018-03-02T12:24:13.808Z,95814.64
2018-03-02T12:26:41.555Z,95809.80
2018-03-02T12:29:12.648Z,95817.48
2018-03-02T12:31:40.919Z,95816.57
2018-03-02T12:34:08.596Z,95813.59
2018-03-02T12:36:36.290Z,95821.19
2018-03-02T12:39:06.990Z,95810.77
2018-03-02T12:41:35.024Z,95825.36
2018-03-02T12:44:03.302Z,95823.49
2018-03-02T12:46:38.534Z,95818.25
2018-03-02T12:49:06.887Z,95825.12
2018-03-02T12:51:34.597Z,95821.27
2018-03-02T12:54:02.303Z,95823.13
2018-03-02T12:56:30.281Z,95826.34
2018-03-02T12:58:58.800Z,95830.64
2018-03-02T13:01:27.791Z,95825.04
2018-03-02T13:03:57.183Z,95824.70
2018-03-02T13:06:26.173Z,95821.09
2018-03-02T13:09:07.317Z,95817.51
2018-03-02T13:11:37.512Z,95825.54
2018-03-02T13:14:06.581Z,95831.58
2018-03-02T13:16:34.855Z,95830.33
2018-03-02T13:19:02.881Z,95834.39
2018-03-02T13:21:30.875Z,95837.03
2018-03-02T13:23:59.198Z,95840.33
2018-03-02T13:29:31.779Z,95841.02
2018-03-02T13:32:00.114Z,95838.13
2018-03-02T13:34:42.758Z,95836.71
2018-03-02T13:37:10.553Z,95828.78
2018-03-02T13:39:49.962Z,95833.81
2018-03-02T13:42:18.356Z,95826.20
2018-03-02T13:44:46.718Z,95835.02
2018-03-02T13:47:14.695Z,95847.55
2018-03-02T13:49:54.336Z,95851.62
2018-03-02T13:52:22.212Z,95850.83
2018-03-02T13:54:50.367Z,95856.81
2018-03-02T14:00:24.923Z,95867.40
2018-03-02T14:03:04.777Z,95876.28
2018-03-02T14:05:32.838Z,95876.09
2018-03-02T14:08:01.329Z,95883.01
2018-03-02T14:10:29.111Z,95893.99
2018-03-02T14:12:57.044Z,95891.08
2018-03-02T14:15:25.031Z,95890.35
2018-03-02T14:17:53.473Z,95892.16
2018-03-02T14:20:21.670Z,95908.69
2018-03-02T14:22:49.380Z,95915.67
2018-03-02T14:25:17.098Z,95930.98
2018-03-02T14:27:44.985Z,95941.27
2018-03-02T14:30:12.842Z,95950.17
2018-03-02T14:32:41.008Z,95951.53
2018-03-02T14:35:08.766Z,95945.52
2018-03-02T14:37:36.476Z,95947.48
2018-03-02T14:40:04.225Z,95946.88
2018-03-02T14:42:32.224Z,95942.80
2018-03-02T14:45:00.356Z,95952.44
2018-03-02T14:47:28.029Z,95959.02
2018-03-02T14:49:55.722Z,95970.38
2018-03-02T14:52:23.632Z,95975.16
2018-03-02T14:54:51.381Z,95980.77
2018-03-02T14:57:19.224Z,95982.53
2018-03-02T14:59:48.177Z,95980.27
2018-03-02T15:02:15.974Z,95988.48
2018-03-02T15:04:44.193Z,95985.70
2018-03-02T15:07:11.966Z,95985.13
2018-03-02T15:09:39.929Z,95981.66
2018-03-02T15:12:07.935Z,95980.55
2018-03-02T15:14:35.889Z,95984.95
2018-03-02T15:17:03.677Z,95987.73
2018-03-02T15:19:31.402Z,95988.88
2018-03-02T15:21:59.368Z,95981.91
2018-03-02T15:24:27.439Z,95985.89
2018-03-02T15:26:55.112Z,95998.38
2018-03-02T15:29:22.974Z,96000.16
2018-03-02T15:31:50.932Z,96005.71
2018-03-02T15:34:19.115Z,96002.41
2018-03-02T15:36:47.178Z,96006.58
2018-03-02T15:39:14.928Z,96003.54
2018-03-02T15:41:42.640Z,96014.95
2018-03-02T15:44:11.673Z,96013.56
2018-03-02T15:46:40.849Z,96022.53
2018-03-02T15:49:08.528Z,96022.22
2018-03-02T15:51:36.267Z,96024.27
2018-03-02T15:54:03.956Z,96030.80
2018-03-02T15:56:31.637Z,96036.22
2018-03-02T15:58:59.398Z,96040.25
2018-03-02T16:01:27.438Z,96030.77
2018-03-02T16:03:55.146Z,96044.02
2018-03-02T16:06:22.845Z,96042.46
2018-03-02T16:08:50.528Z,96043.08
2018-03-02T16:11:18.335Z,96045.66
2018-03-02T16:13:46.072Z,96054.28
2018-03-02T16:16:14.092Z,96057.41
2018-03-02T16:18:44.659Z,96053.27
2018-03-02T16:21:12.357Z,96062.25
2018-03-02T16:23:40.301Z,96066.63
2018-03-02T16:26:08.011Z,96068.03
2018-03-02T16:28:35.766Z,96068.85
2018-03-02T16:31:12.273Z,96068.61
2018-03-02T16:33:40.123Z,96072.32
2018-03-02T16:36:08.228Z,96078.24
2018-03-02T16:38:35.923Z,96090.13
2018-03-02T16:41:03.623Z,96087.52
2018-03-02T16:43:31.313Z,96091.42
2018-03-02T16:45:58.987Z,96097.98
2018-03-02T16:48:26.899Z,96102.45
2018-03-02T16:50:54.678Z,96106.71
2018-03-02T16:53:22.373Z,96107.23
2018-03-02T16:55:50.091Z,96112.83
2018-03-02T16:58:17.816Z,96117.95
2018-03-02T17:00:46.005Z,96119.42
2018-03-02T17:03:13.762Z,96122.90
2018-03-02T17:05:41.504Z,96129.50
2018-03-02T17:08:09.224Z,96127.13
2018-03-02T17:10:36.970Z,96129.00
2018-03-02T17:13:04.692Z,96125.12
2018-03-02T17:15:32.422Z,96133.05
2018-03-02T17:18:00.164Z,96133.97
2018-03-02T17:20:27.876Z,96138.95
2018-03-02T17:22:55.557Z,96145.13
2018-03-02T17:25:23.306Z,96149.56
2018-03-02T17:27:50.980Z,96155.07
2018-03-02T17:30:18.861Z,96159.25
2018-03-02T17:32:46.656Z,96166.71
2018-03-02T17:35:14.346Z,96175.31
2018-03-02T17:37:42.194Z,96182.35
2018-03-02T17:40:09.920Z,96183.11
2018-03-02T17:42:37.624Z,96175.41
2018-03-02T17:45:05.318Z,96181.52
2018-03-02T17:47:33.225Z,96187.12
2018-03-02T17:50:00.943Z,96190.31
2018-03-02T17:52:28.666Z,96193.03
2018-03-02T17:54:56.412Z,96202.50
2018-03-02T17:57:24.089Z,96204.13
2018-03-02T17:59:51.851Z,96204.74
2018-03-02T18:02:19.549Z,96202.40
2018-03-02T18:04:47.328Z,96201.03
2018-03-02T18:07:15.019Z,96197.36
2018-03-02T18:09:42.785Z,96203.11
2018-03-02T18:12:10.535Z,96202.36
2018-03-02T18:14:38.272Z,96203.13
2018-03-02T18:17:06.034Z,96207.59
2018-03-02T18:19:33.761Z,96213.56
2018-03-02T18:22:01.491Z,96215.03
2018-03-02T18:24:29.233Z,96215.81
2018-03-02T18:26:56.970Z,96214.69
2018-03-02T18:29:25.159Z,96212.37
2018-03-02T18:31:52.841Z,96216.47
2018-03-02T18:34:20.576Z,96222.45
2018-03-02T18:36:48.339Z,96223.15
2018-03-02T18:39:16.065Z,96224.98
2018-03-02T18:41:43.767Z,96220.00
2018-03-02T18:44:11.448Z,96223.64
2018-03-02T18:46:39.216Z,96211.81
2018-03-02T18:49:06.968Z,96229.38
2018-03-02T18:51:34.716Z,96228.17
2018-03-02T18:54:02.442Z,96227.92
2018-03-02T18:56:30.509Z,96232.27
2018-03-02T18:58:58.236Z,96230.41
2018-03-02T19:01:26.222Z,96233.02
2018-03-02T19:03:53.928Z,96234.38
2018-03-02T19:06:21.626Z,96234.60
2018-03-02T19:08:49.378Z,96231.88
2018-03-02T19:11:17.095Z,96234.20
2018-03-02T19:13:44.868Z,96233.78
2018-03-02T19:16:12.615Z,96233.55
2018-03-02T19:18:40.458Z,96231.80
2018-03-02T19:21:08.168Z,96229.55
2018-03-02T19:23:35.877Z,96232.53
2018-03-02T19:26:03.662Z,96236.02
2018-03-02T19:28:31.454Z,96245.41
2018-03-02T19:30:59.452Z,96242.73
2018-03-02T19:33:27.408Z,96245.27
2018-03-02T19:35:55.428Z,96257.52
2018-03-02T19:38:23.226Z,96250.28
2018-03-02T19:40:51.261Z,96250.74
2018-03-02T19:43:19.430Z,96253.14
2018-03-02T19:45:47.432Z,96253.41
2018-03-02T19:48:15.678Z,96255.41
2018-03-02T19:50:43.459Z,96260.85
2018-03-02T19:53:11.311Z,96259.70
2018-03-02T19:55:39.279Z,96261.78
2018-03-02T19:58:07.256Z,96269.80
2018-03-02T20:00:35.111Z,96269.14
2018-03-02T20:03:02.995Z,96274.20
2018-03-02T20:05:30.956Z,96268.36
2018-03-02T20:07:58.822Z,96272.88
2018-03-02T20:10:27.513Z,96274.77
2018-03-02T20:12:55.482Z,96271.88
2018-03-02T20:15:23.325Z,96280.21
2018-03-02T20:17:51.121Z,96274.33
2018-03-02T20:20:18.824Z,96270.73
2018-03-02T20:22:46.704Z,96266.44
2018-03-02T20:25:14.602Z,96256.95
2018-03-02T20:27:42.461Z,96254.13
2018-03-02T20:30:10.190Z,96256.38
2018-03-02T20:32:37.874Z,96261.07
2018-03-02T20:35:05.605Z,96248.74
2018-03-02T20:37:33.284Z,96249.83
2018-03-02T20:40:01.048Z,96242.09
2018-03-02T20:42:28.735Z,96242.28
2018-03-02T20:44:56.444Z,96246.06
2018-03-02T20:47:24.137Z,96250.57
2018-03-02T20:49:51.881Z,96241.41
2018-03-02T20:52:19.564Z,96246.94
2018-03-02T20:54:47.275Z,96243.45
2018-03-02T20:57:14.959Z,96235.48
2018-03-02T20:59:42.661Z,96233.89
2018-03-02T21:02:10.485Z,96236.83
2018-03-02T21:04:38.189Z,96243.45
2018-03-02T21:07:05.877Z,96250.30
2018-03-02T21:09:33.570Z,96252.18
2018-03-02T21:12:01.286Z,96252.58
2018-03-02T21:14:28.981Z,96252.94
2018-03-02T21:16:56.676Z,96262.95
2018-03-02T21:19:24.409Z,96264.80
2018-03-02T21:21:53.632Z,96265.50
2018-03-02T21:24:21.394Z,96270.66
2018-03-02T21:26:49.136Z,96273.13
2018-03-02T21:29:16.881Z,96270.76
2018-03-02T21:31:44.619Z,96272.33
2018-03-02T21:34:12.320Z,96266.63
2018-03-02T21:36:40.025Z,96270.66
2018-03-02T21:39:07.695Z,96276.19
2018-03-02T21:41:35.396Z,96272.50
2018-03-02T21:44:03.083Z,96279.70
2018-03-02T21:46:30.778Z,96279.17
2018-03-02T21:48:58.482Z,96275.56
2018-03-02T21:51:26.591Z,96280.87
2018-03-02T21:53:54.269Z,96278.69
2018-03-02T21:56:21.949Z,96269.25
2018-03-02T21:58:49.657Z,96274.66
2018-03-02T22:01:17.421Z,96277.26
2018-03-02T22:03:45.115Z,96277.35
2018-03-02T22:06:12.784Z,96271.41
2018-03-02T22:08:40.465Z,96272.87
2018-03-02T22:11:08.168Z,96269.56
2018-03-02T22:13:35.839Z,96271.47
2018-03-02T22:16:03.708Z,96272.22
2018-03-02T22:18:31.388Z,96274.48
2018-03-02T22:20:59.100Z,96268.95
2018-03-02T22:23:26.812Z,96275.47
2018-03-02T22:25:54.487Z,96281.80
2018-03-02T22:28:22.237Z,96290.97
2018-03-02T22:30:49.919Z,96282.47
2018-03-02T22:33:17.607Z,96289.01
2018-03-02T22:35:45.313Z,96284.06
2018-03-02T22:38:12.980Z,96284.52
2018-03-02T22:40:40.684Z,96286.59
2018-03-02T22:43:08.375Z,96300.25
2018-03-02T22:45:36.273Z,96301.06
2018-03-02T22:48:03.954Z,96295.40
2018-03-02T22:50:31.626Z,96300.38
2018-03-02T22:52:59.318Z,96296.59
2018-03-02T22:55:27.000Z,96306.17
2018-03-02T22:57:54.700Z,96300.84
2018-03-02T23:00:22.384Z,96300.99
2018-03-02T23:02:50.418Z,96294.61
2018-03-02T23:05:18.101Z,96298.88
2018-03-02T23:07:45.784Z,96303.46
2018-03-02T23:10:13.485Z,96300.12
2018-03-02T23:12:41.229Z,96293.86
2018-03-02T23:15:08.943Z,96288.57
2018-03-02T23:17:36.663Z,96289.05
2018-03-02T23:20:04.871Z,96288.95
2018-03-02T23:22:32.767Z,96290.72
2018-03-02T23:25:00.463Z,96297.55
2018-03-02T23:27:28.161Z,96288.48
2018-03-02T23:29:55.851Z,96279.67
2018-03-02T23:32:23.603Z,96276.19
2018-03-02T23:34:51.358Z,96284.19
2018-03-02T23:37:19.113Z,96279.97
2018-03-02T23:39:46.805Z,96286.34
2018-03-02T23:42:14.550Z,96278.41
2018-03-02T23:44:42.285Z,96293.39
2018-03-02T23:47:10.045Z,96291.16
2018-03-02T23:49:37.726Z,96290.63
2018-03-02T23:52:05.428Z,96294.01
2018-03-02T23:54:33.162Z,96289.31
2018-03-02T23:57:00.852Z,96284.79
2018-03-02T23:59:28.584Z,96288.11
